Time;durP1;ratioP1;P1;durP2;ratioP2;P2;SDS_P1;SDS_P2;PMS_P1;PMS_P2;Temp;Humidity;BMP_temperature;BMP_pressure;BME280_temperature;BME280_humidity;BME280_pressure;Samples;Min_cycle;Max_cycle;Signal;HPM_P1;HPM_P2
2023/09/15 00:01:13;;;;;;;11.73;5.10;;;11.80;99.90;;;;;;5073850;28;20982;-83
2023/09/15 00:03:39;;;;;;;7.80;4.40;;;11.80;99.90;;;;;;5056934;28;20188;-84
2023/09/15 00:06:05;;;;;;;4.90;4.50;;;11.70;99.90;;;;;;5074113;28;20266;-83
2023/09/15 00:08:31;;;;;;;7.43;4.50;;;11.70;99.90;;;;;;5075164;28;20415;-83
2023/09/15 00:10:56;;;;;;;6.40;3.97;;;11.70;99.90;;;;;;5073412;28;20581;-83
2023/09/15 00:13:22;;;;;;;7.80;3.80;;;11.60;99.90;;;;;;5073826;28;20181;-83
2023/09/15 00:15:50;;;;;;;5.37;4.40;;;11.60;99.90;;;;;;5056161;28;20688;-83
2023/09/15 00:18:16;;;;;;;5.90;4.50;;;11.60;99.90;;;;;;5073481;28;20637;-83
2023/09/15 00:20:42;;;;;;;7.43;4.70;;;11.60;99.90;;;;;;5073460;28;20403;-83
2023/09/15 00:23:07;;;;;;;10.13;4.93;;;11.50;99.90;;;;;;5056970;28;20827;-83
2023/09/15 00:25:33;;;;;;;9.30;4.63;;;11.50;99.90;;;;;;5073717;28;20234;-83
2023/09/15 00:28:00;;;;;;;6.50;4.97;;;11.50;99.90;;;;;;5073503;28;20571;-83
2023/09/15 00:30:27;;;;;;;4.80;4.30;;;11.50;99.90;;;;;;5093659;28;20271;-83
2023/09/15 00:32:53;;;;;;;9.93;5.20;;;11.50;99.90;;;;;;5076875;28;20180;-83
2023/09/15 00:35:22;;;;;;;7.33;5.10;;;11.50;99.90;;;;;;5093310;28;20427;-83
2023/09/15 00:37:49;;;;;;;4.95;4.18;;;11.40;99.90;;;;;;5093369;28;20544;-83
2023/09/15 00:40:17;;;;;;;8.45;5.22;;;11.40;99.90;;;;;;5076576;28;20184;-83
2023/09/15 00:42:44;;;;;;;7.00;5.07;;;11.40;99.90;;;;;;5093100;28;20230;-83
2023/09/15 00:45:14;;;;;;;7.93;5.23;;;11.40;99.90;;;;;;5076502;28;20244;-82
2023/09/15 00:47:43;;;;;;;6.35;5.10;;;11.40;99.90;;;;;;5093322;28;20442;-83
2023/09/15 00:50:14;;;;;;;8.50;6.15;;;11.40;99.90;;;;;;5092958;28;20686;-83
2023/09/15 00:52:50;;;;;;;7.27;4.70;;;11.40;99.90;;;;;;5094603;28;20519;-83
2023/09/15 00:55:19;;;;;;;10.60;5.67;;;11.40;99.90;;;;;;5093495;28;20921;-83
2023/09/15 00:57:47;;;;;;;9.85;5.70;;;11.40;99.90;;;;;;5093683;28;20476;-83
2023/09/15 01:00:14;;;;;;;7.10;5.50;;;11.40;99.90;;;;;;5093046;28;20602;-83
2023/09/15 01:02:42;;;;;;;10.05;5.50;;;11.30;99.90;;;;;;5075569;28;20460;-83
2023/09/15 01:05:10;;;;;;;7.00;5.27;;;11.30;99.90;;;;;;5092992;28;20222;-83
2023/09/15 01:07:37;;;;;;;9.50;5.87;;;11.30;99.90;;;;;;5094189;28;20406;-83
2023/09/15 01:10:04;;;;;;;12.87;6.70;;;11.30;99.90;;;;;;5076336;28;20797;-83
2023/09/15 01:12:31;;;;;;;9.80;5.83;;;11.30;99.90;;;;;;5073564;28;20521;-83
2023/09/15 01:14:56;;;;;;;9.47;7.00;;;11.30;99.90;;;;;;5073591;28;20475;-83
2023/09/15 01:17:29;;;;;;;9.53;5.70;;;11.30;99.90;;;;;;5072559;28;20473;-83
2023/09/15 01:20:15;;;;;;;9.35;5.55;;;11.30;99.90;;;;;;5072601;28;20941;-83
2023/09/15 01:23:23;;;;;;;9.43;6.70;;;11.30;99.90;;;;;;5072741;28;20184;-83
2023/09/15 01:26:18;;;;;;;9.68;5.90;;;11.30;99.90;;;;;;5073985;28;20403;-83
2023/09/15 01:29:18;;;;;;;7.50;5.83;;;11.30;99.90;;;;;;5072537;28;20179;-85
2023/09/15 01:31:45;;;;;;;9.70;5.43;;;11.30;99.90;;;;;;5072565;28;20434;-83
2023/09/15 01:34:13;;;;;;;8.33;5.63;;;11.30;99.90;;;;;;5071394;28;20196;-83
2023/09/15 01:36:40;;;;;;;8.40;5.87;;;11.30;99.90;;;;;;5093736;28;20840;-83
2023/09/15 01:39:05;;;;;;;12.40;7.32;;;11.30;99.90;;;;;;5075268;28;20423;-83
2023/09/15 01:41:31;;;;;;;8.70;6.70;;;11.40;99.90;;;;;;5075668;28;20317;-82
2023/09/15 01:43:56;;;;;;;6.97;5.90;;;11.40;99.90;;;;;;5092220;28;20175;-82
2023/09/15 01:46:23;;;;;;;13.80;7.30;;;11.40;99.90;;;;;;5075532;28;20725;-83
2023/09/15 01:48:56;;;;;;;8.60;6.65;;;11.40;99.90;;;;;;5092439;28;20180;-82
2023/09/15 01:51:23;;;;;;;8.82;7.05;;;11.40;99.90;;;;;;5092679;28;20182;-82
2023/09/15 01:53:51;;;;;;;8.45;6.15;;;11.40;99.90;;;;;;5092461;28;20179;-83
2023/09/15 01:56:18;;;;;;;11.53;6.83;;;11.40;99.90;;;;;;5092578;28;20204;-83
2023/09/15 01:58:44;;;;;;;13.93;7.13;;;11.40;99.90;;;;;;5092231;28;20418;-82
2023/09/15 02:01:09;;;;;;;8.97;7.90;;;11.50;99.90;;;;;;5093520;28;20291;-82
2023/09/15 02:03:35;;;;;;;13.90;8.80;;;11.50;99.90;;;;;;5075848;28;20422;-82
2023/09/15 02:06:04;;;;;;;9.73;7.00;;;11.50;99.90;;;;;;5075622;28;20186;-82
2023/09/15 02:08:30;;;;;;;13.37;7.93;;;11.50;99.90;;;;;;5076141;28;20256;-82
2023/09/15 02:10:56;;;;;;;10.27;8.90;;;11.40;99.90;;;;;;5074095;28;20433;-82
2023/09/15 02:13:21;;;;;;;11.77;7.83;;;11.40;99.90;;;;;;5092346;28;20410;-82
2023/09/15 02:15:47;;;;;;;11.53;8.67;;;11.40;99.90;;;;;;5060980;28;20706;-83
2023/09/15 02:18:13;;;;;;;9.53;8.47;;;11.40;99.90;;;;;;5096333;28;20204;-82
2023/09/15 02:20:38;;;;;;;10.10;7.33;;;11.40;99.90;;;;;;5096399;28;20176;-82
2023/09/15 02:23:04;;;;;;;11.30;7.93;;;11.40;99.90;;;;;;5096176;28;20546;-82
2023/09/15 02:25:34;;;;;;;10.80;8.30;;;11.40;99.90;;;;;;5095887;28;20176;-82
2023/09/15 02:28:02;;;;;;;11.00;8.38;;;11.40;99.90;;;;;;5078985;28;20654;-82
2023/09/15 02:30:27;;;;;;;12.43;8.13;;;11.40;99.90;;;;;;5079682;28;20184;-82
2023/09/15 02:32:53;;;;;;;10.73;8.03;;;11.40;99.90;;;;;;5095950;28;20738;-82
2023/09/15 02:35:20;;;;;;;13.60;9.20;;;11.40;99.90;;;;;;5096069;28;20573;-82
2023/09/15 02:37:45;;;;;;;14.40;9.63;;;11.40;99.90;;;;;;5095710;28;20208;-82
2023/09/15 02:40:14;;;;;;;11.33;8.27;;;11.40;99.90;;;;;;5078534;28;20430;-82
2023/09/15 02:42:40;;;;;;;11.03;8.00;;;11.30;99.90;;;;;;5096672;28;20601;-82
2023/09/15 02:45:06;;;;;;;10.60;7.80;;;11.30;99.90;;;;;;5078821;28;20402;-82
2023/09/15 02:47:32;;;;;;;14.43;7.40;;;11.30;99.90;;;;;;5078781;28;20666;-82
2023/09/15 02:49:57;;;;;;;11.57;7.40;;;11.30;99.90;;;;;;5078728;28;20406;-83
2023/09/15 02:52:23;;;;;;;15.03;8.30;;;11.30;99.90;;;;;;5096805;28;20410;-82
2023/09/15 02:54:49;;;;;;;11.70;6.53;;;11.20;99.90;;;;;;5078603;28;20184;-85
2023/09/15 02:57:14;;;;;;;9.13;5.70;;;11.30;99.90;;;;;;5078723;28;20204;-83
2023/09/15 02:59:40;;;;;;;7.30;5.43;;;11.30;99.90;;;;;;5096740;28;20270;-82
2023/09/15 03:02:12;;;;;;;9.77;6.10;;;11.30;99.90;;;;;;5096402;28;20666;-83
2023/09/15 03:04:37;;;;;;;6.57;5.83;;;11.30;99.90;;;;;;5095685;28;20176;-83
2023/09/15 03:07:03;;;;;;;6.80;5.60;;;11.30;99.90;;;;;;5078632;28;20437;-83
2023/09/15 03:09:31;;;;;;;6.93;5.40;;;11.30;99.90;;;;;;5094919;28;20195;-83
2023/09/15 03:11:57;;;;;;;10.97;6.17;;;11.30;99.90;;;;;;5077397;28;20651;-83
2023/09/15 03:14:23;;;;;;;6.40;5.60;;;11.30;99.90;;;;;;5076227;28;20399;-83
2023/09/15 03:16:48;;;;;;;11.03;5.80;;;11.30;99.90;;;;;;5075011;28;20474;-82
2023/09/15 03:19:14;;;;;;;6.07;4.80;;;11.20;99.90;;;;;;5074924;28;20187;-83
2023/09/15 03:21:40;;;;;;;6.97;4.93;;;11.20;99.90;;;;;;5074658;28;20554;-83
2023/09/15 03:24:07;;;;;;;6.20;5.27;;;11.20;99.90;;;;;;5075715;28;20173;-83
2023/09/15 03:26:33;;;;;;;5.72;4.68;;;11.10;99.90;;;;;;5057543;28;20415;-83
2023/09/15 03:28:58;;;;;;;8.23;5.47;;;11.10;99.90;;;;;;5057645;28;20250;-83
2023/09/15 03:31:24;;;;;;;7.57;5.37;;;11.10;99.90;;;;;;5074551;28;20180;-82
2023/09/15 03:33:50;;;;;;;7.17;5.40;;;11.10;99.90;;;;;;5074712;28;20205;-84
2023/09/15 03:36:16;;;;;;;11.73;5.50;;;11.20;99.90;;;;;;5075269;28;20205;-84
2023/09/15 03:38:41;;;;;;;11.80;5.53;;;11.10;99.90;;;;;;5074781;28;20181;-84
2023/09/15 03:41:07;;;;;;;10.97;5.93;;;11.10;99.90;;;;;;5068665;28;20436;-83
2023/09/15 03:43:33;;;;;;;7.80;6.10;;;11.10;99.90;;;;;;5058081;28;20260;-84
2023/09/15 03:46:00;;;;;;;8.30;6.07;;;11.10;99.90;;;;;;5074802;28;20184;-83
2023/09/15 03:48:26;;;;;;;13.15;8.05;;;11.00;99.90;;;;;;5058010;28;20185;-84
2023/09/15 03:50:52;;;;;;;9.20;5.90;;;11.00;99.90;;;;;;5073906;28;20231;-83
2023/09/15 03:53:18;;;;;;;9.07;5.90;;;11.00;99.90;;;;;;5074936;28;20404;-84
2023/09/15 03:55:43;;;;;;;7.30;5.77;;;11.00;99.90;;;;;;5075519;28;20679;-84
2023/09/15 03:58:09;;;;;;;7.73;5.40;;;11.00;99.90;;;;;;5073717;28;20252;-84
2023/09/15 04:00:35;;;;;;;9.00;6.00;;;11.00;99.90;;;;;;5075064;28;20176;-84
2023/09/15 04:03:03;;;;;;;18.43;7.30;;;11.00;99.90;;;;;;5057166;28;20427;-84
2023/09/15 04:05:29;;;;;;;7.73;5.70;;;11.00;99.90;;;;;;5057588;28;20189;-84
2023/09/15 04:07:56;;;;;;;11.13;6.50;;;11.00;99.90;;;;;;5073483;28;20953;-84
2023/09/15 04:10:22;;;;;;;10.50;5.78;;;11.00;99.90;;;;;;5056433;28;20507;-84
2023/09/15 04:12:48;;;;;;;10.00;6.25;;;11.00;99.90;;;;;;5071710;28;20196;-83
2023/09/15 04:15:15;;;;;;;8.67;6.20;;;11.00;99.90;;;;;;5038092;28;20233;-83
2023/09/15 04:17:41;;;;;;;16.13;7.30;;;11.00;99.90;;;;;;5070045;28;20861;-83
2023/09/15 04:20:09;;;;;;;12.55;7.53;;;10.90;99.90;;;;;;5078874;28;20185;-83
2023/09/15 04:22:40;;;;;;;10.93;7.43;;;10.90;99.90;;;;;;5073989;28;20604;-83
2023/09/15 04:25:07;;;;;;;10.50;6.80;;;10.90;99.90;;;;;;5086786;28;20192;-84
2023/09/15 04:27:33;;;;;;;9.88;6.70;;;10.90;99.90;;;;;;5077171;28;20658;-83
2023/09/15 04:29:59;;;;;;;11.43;6.60;;;10.90;99.90;;;;;;5093475;28;20195;-83
2023/09/15 04:32:24;;;;;;;10.63;7.77;;;10.90;99.90;;;;;;5076315;28;20624;-84
2023/09/15 04:34:51;;;;;;;9.97;7.43;;;10.80;99.90;;;;;;5080113;28;20544;-83
2023/09/15 04:37:17;;;;;;;11.57;7.30;;;10.80;99.90;;;;;;5072490;28;20212;-83
2023/09/15 04:39:43;;;;;;;11.35;7.72;;;10.80;99.90;;;;;;5056832;28;20445;-83
2023/09/15 04:42:10;;;;;;;9.20;7.17;;;10.80;99.90;;;;;;5073118;28;20279;-84
2023/09/15 04:44:36;;;;;;;13.20;8.00;;;10.70;99.90;;;;;;5073414;28;20181;-83
2023/09/15 04:47:01;;;;;;;15.30;8.03;;;10.70;99.90;;;;;;5073936;28;20716;-84
2023/09/15 04:49:27;;;;;;;12.13;7.13;;;10.70;99.90;;;;;;5073010;28;20549;-84
2023/09/15 04:51:53;;;;;;;12.00;6.97;;;10.60;99.90;;;;;;5056212;28;20187;-84
2023/09/15 04:54:19;;;;;;;15.65;7.70;;;10.60;99.90;;;;;;5072675;28;20176;-83
2023/09/15 04:56:45;;;;;;;11.93;8.47;;;10.60;99.90;;;;;;5056561;28;20205;-84
2023/09/15 04:59:15;;;;;;;8.67;7.10;;;10.60;99.90;;;;;;5072581;28;20914;-84
2023/09/15 05:01:42;;;;;;;15.70;7.60;;;10.60;99.90;;;;;;5054028;28;20559;-83
2023/09/15 05:04:08;;;;;;;9.15;7.65;;;10.60;99.90;;;;;;5053617;28;20182;-83
2023/09/15 05:06:34;;;;;;;11.00;8.10;;;10.60;99.90;;;;;;5052967;28;20181;-83
2023/09/15 05:08:59;;;;;;;11.13;7.30;;;10.60;99.90;;;;;;5052254;28;20326;-84
2023/09/15 05:11:25;;;;;;;15.97;8.90;;;10.70;99.90;;;;;;5055981;28;20554;-83
2023/09/15 05:13:50;;;;;;;10.20;8.30;;;10.70;99.90;;;;;;5073464;28;20246;-84
2023/09/15 05:16:17;;;;;;;12.50;7.90;;;10.70;99.90;;;;;;5072202;28;20237;-84
2023/09/15 05:18:43;;;;;;;10.68;8.38;;;10.70;99.90;;;;;;5072762;28;20184;-84
2023/09/15 05:21:08;;;;;;;14.83;8.50;;;10.70;99.90;;;;;;5072485;28;20193;-84
2023/09/15 05:23:34;;;;;;;18.30;8.47;;;10.70;99.90;;;;;;5073747;28;20169;-84
2023/09/15 05:26:00;;;;;;;9.47;7.67;;;10.70;99.90;;;;;;5072432;28;20628;-85
2023/09/15 05:28:25;;;;;;;13.97;9.27;;;10.70;99.90;;;;;;5072807;28;20176;-84
2023/09/15 05:30:57;;;;;;;11.97;8.73;;;10.70;99.90;;;;;;5056061;28;20544;-84
2023/09/15 05:33:22;;;;;;;15.20;8.10;;;10.80;99.90;;;;;;5055721;28;20185;-84
2023/09/15 05:35:48;;;;;;;13.17;8.03;;;10.80;99.90;;;;;;5072636;28;20502;-83
2023/09/15 05:38:14;;;;;;;11.40;8.27;;;10.90;99.90;;;;;;5073501;28;20231;-85
2023/09/15 05:40:40;;;;;;;14.00;7.80;;;10.90;99.90;;;;;;5072594;28;20180;-84
2023/09/15 05:43:06;;;;;;;13.23;7.43;;;10.90;99.90;;;;;;5072051;28;20434;-85
2023/09/15 05:45:32;;;;;;;13.32;7.25;;;11.00;99.90;;;;;;5056001;28;20430;-85
2023/09/15 05:47:58;;;;;;;10.20;7.73;;;11.00;99.90;;;;;;5073284;28;20184;-84
2023/09/15 05:50:24;;;;;;;9.63;8.40;;;11.00;99.90;;;;;;5059305;28;20585;-85
2023/09/15 05:52:49;;;;;;;9.10;7.13;;;11.00;99.90;;;;;;5059854;28;20188;-85
2023/09/15 05:55:17;;;;;;;13.63;6.77;;;11.00;99.90;;;;;;5060017;28;20185;-85
2023/09/15 05:57:43;;;;;;;12.07;6.67;;;11.10;99.90;;;;;;5096474;28;20208;-85
2023/09/15 06:00:08;;;;;;;12.70;7.37;;;11.10;99.90;;;;;;5079599;28;20430;-85
2023/09/15 06:02:34;;;;;;;16.20;7.90;;;11.10;99.90;;;;;;5079433;28;20199;-85
2023/09/15 06:05:00;;;;;;;15.67;7.90;;;11.10;99.90;;;;;;5097849;28;20410;-85
2023/09/15 06:07:25;;;;;;;8.00;7.20;;;11.20;99.90;;;;;;5079654;28;20197;-85
2023/09/15 06:09:51;;;;;;;14.70;7.50;;;11.20;99.90;;;;;;5079583;28;20279;-85
2023/09/15 06:12:16;;;;;;;11.77;7.03;;;11.20;99.90;;;;;;5096041;28;20274;-85
2023/09/15 06:14:42;;;;;;;10.47;7.00;;;11.30;99.90;;;;;;5096099;28;20236;-85
2023/09/15 06:17:07;;;;;;;14.00;6.90;;;11.30;99.90;;;;;;5079618;28;20732;-85
2023/09/15 06:19:33;;;;;;;13.00;7.63;;;11.40;99.90;;;;;;5075725;28;20192;-85
2023/09/15 06:21:59;;;;;;;13.73;9.33;;;11.40;99.90;;;;;;5075748;28;20204;-85
2023/09/15 06:24:24;;;;;;;9.87;7.27;;;11.50;99.90;;;;;;5058810;28;20196;-85
2023/09/15 06:26:50;;;;;;;7.83;7.03;;;11.50;99.90;;;;;;5059190;28;20713;-85
2023/09/15 06:29:15;;;;;;;14.10;7.97;;;11.60;99.90;;;;;;5075715;28;20256;-85
2023/09/15 06:31:41;;;;;;;10.47;7.93;;;11.60;99.90;;;;;;5058772;28;20172;-85
2023/09/15 06:34:07;;;;;;;12.73;9.27;;;11.70;99.90;;;;;;5076730;28;20180;-85
2023/09/15 06:36:33;;;;;;;14.67;8.70;;;11.80;99.90;;;;;;5059296;28;20470;-85
2023/09/15 06:38:59;;;;;;;12.90;9.80;;;11.80;99.90;;;;;;5058884;28;20423;-85
2023/09/15 06:41:24;;;;;;;13.13;7.53;;;11.90;99.90;;;;;;5058426;28;20192;-85
2023/09/15 06:43:50;;;;;;;11.20;8.60;;;12.00;99.90;;;;;;5077235;28;20188;-91
2023/09/15 06:46:21;;;;;;;16.40;8.63;;;12.00;99.90;;;;;;5075846;28;20212;-90
2023/09/15 06:48:48;;;;;;;13.53;8.60;;;12.10;99.90;;;;;;5076346;28;20561;-91
2023/09/15 06:51:13;;;;;;;11.77;8.40;;;12.20;99.90;;;;;;5075580;28;20812;-91
2023/09/15 06:53:39;;;;;;;12.97;7.67;;;12.20;99.90;;;;;;5076162;28;20468;-90
2023/09/15 06:56:04;;;;;;;16.73;8.07;;;12.30;99.90;;;;;;5076741;28;20172;-91
2023/09/15 06:58:30;;;;;;;11.00;7.93;;;12.40;99.90;;;;;;5075791;28;20176;-90
2023/09/15 07:00:56;;;;;;;12.67;9.37;;;12.50;99.90;;;;;;5074956;28;20181;-90
2023/09/15 07:03:23;;;;;;;19.40;8.43;;;12.60;99.90;;;;;;5075417;28;20173;-90
2023/09/15 07:05:49;;;;;;;14.50;7.97;;;12.60;99.90;;;;;;5075400;28;20981;-90
2023/09/15 07:08:15;;;;;;;12.00;7.13;;;12.70;99.90;;;;;;5074923;28;20419;-90
2023/09/15 07:10:41;;;;;;;12.53;8.70;;;12.80;99.90;;;;;;5091847;28;20948;-90
2023/09/15 07:13:06;;;;;;;16.20;7.80;;;12.80;99.90;;;;;;5076397;28;20169;-89
2023/09/15 07:15:35;;;;;;;10.37;7.30;;;12.90;99.90;;;;;;5074873;28;20228;-90
2023/09/15 07:18:04;;;;;;;12.27;7.27;;;12.90;99.90;;;;;;5074939;28;20637;-90
2023/09/15 07:20:30;;;;;;;12.90;7.93;;;12.90;99.90;;;;;;5075658;28;20415;-90
2023/09/15 07:22:57;;;;;;;12.90;7.73;;;13.10;99.90;;;;;;5075280;28;20544;-91
2023/09/15 07:25:23;;;;;;;11.37;6.97;;;13.20;99.90;;;;;;5076578;28;20452;-90
2023/09/15 07:27:50;;;;;;;16.07;6.97;;;13.40;99.90;;;;;;5074888;28;20518;-90
2023/09/15 07:30:16;;;;;;;17.30;7.50;;;13.40;99.90;;;;;;5074943;28;20463;-91
2023/09/15 07:32:42;;;;;;;9.97;6.60;;;13.50;99.90;;;;;;5075133;28;20412;-90
2023/09/15 07:35:09;;;;;;;13.97;7.57;;;13.60;99.90;;;;;;5075616;28;20403;-91
2023/09/15 07:37:35;;;;;;;8.70;6.30;;;13.80;99.90;;;;;;5074505;28;20501;-92
2023/09/15 07:40:02;;;;;;;9.70;6.87;;;13.80;99.90;;;;;;5074511;28;20427;-90
2023/09/15 07:42:28;;;;;;;15.23;6.43;;;13.90;99.90;;;;;;5074761;28;20419;-90
2023/09/15 07:44:53;;;;;;;13.90;6.40;;;14.10;99.90;;;;;;5074121;28;20473;-90
2023/09/15 07:47:19;;;;;;;10.93;6.07;;;14.20;99.90;;;;;;5074082;28;20177;-90
2023/09/15 07:49:45;;;;;;;10.97;5.83;;;14.30;99.90;;;;;;5074547;28;20516;-90
2023/09/15 07:52:11;;;;;;;8.77;5.97;;;14.40;99.90;;;;;;5074296;28;20418;-91
2023/09/15 07:54:36;;;;;;;9.77;6.73;;;14.60;99.90;;;;;;5074141;28;20411;-90
2023/09/15 07:57:03;;;;;;;8.57;6.63;;;14.60;99.90;;;;;;5074348;28;20200;-90
2023/09/15 07:59:30;;;;;;;16.97;7.50;;;14.80;99.90;;;;;;5075544;28;20172;-91
2023/09/15 08:01:56;;;;;;;13.60;7.37;;;14.90;99.90;;;;;;5074587;28;20419;-88
2023/09/15 08:04:22;;;;;;;11.50;7.10;;;15.00;99.90;;;;;;5074259;28;20465;-89
2023/09/15 08:06:49;;;;;;;7.87;6.03;;;15.20;99.90;;;;;;5074748;28;20431;-88
2023/09/15 08:09:16;;;;;;;11.57;6.80;;;15.30;99.90;;;;;;5074059;28;20183;-89
2023/09/15 08:11:42;;;;;;;11.23;6.17;;;15.40;99.90;;;;;;5074233;28;20434;-89
2023/09/15 08:14:11;;;;;;;10.27;6.97;;;15.50;99.90;;;;;;5075498;28;20400;-89
2023/09/15 08:16:39;;;;;;;8.13;5.67;;;15.60;99.90;;;;;;5073692;28;20327;-89
2023/09/15 08:19:05;;;;;;;10.13;5.47;;;15.70;99.90;;;;;;5073614;28;20431;-89
2023/09/15 08:21:31;;;;;;;9.73;5.83;;;15.80;99.90;;;;;;5073765;28;20477;-89
2023/09/15 08:23:57;;;;;;;8.00;5.90;;;16.00;99.90;;;;;;5077087;28;20610;-89
2023/09/15 08:26:25;;;;;;;13.97;5.77;;;16.10;99.90;;;;;;5094479;28;20422;-89
2023/09/15 08:28:50;;;;;;;10.10;4.73;;;16.20;99.90;;;;;;5094698;28;20410;-89
2023/09/15 08:31:16;;;;;;;8.13;5.10;;;16.30;99.90;;;;;;5077401;28;20509;-89
2023/09/15 08:33:45;;;;;;;10.30;4.70;;;16.40;99.90;;;;;;5094962;28;20179;-90
2023/09/15 08:36:13;;;;;;;10.10;5.13;;;16.70;99.90;;;;;;5094878;28;20180;-89
2023/09/15 08:38:39;;;;;;;7.27;4.23;;;17.10;99.90;;;;;;5095578;28;20396;-89
2023/09/15 08:41:24;;;;;;;7.37;4.47;;;17.40;99.90;;;;;;5094568;28;20422;-89
2023/09/15 08:43:52;;;;;;;5.00;3.60;;;17.80;99.90;;;;;;5093775;28;20180;-89
2023/09/15 08:46:20;;;;;;;7.40;4.00;;;18.40;99.90;;;;;;5093678;28;20537;-88
2023/09/15 08:48:49;;;;;;;5.60;4.30;;;19.10;99.90;;;;;;5093250;28;20404;-88
2023/09/15 08:51:15;;;;;;;7.20;4.10;;;19.50;99.90;;;;;;5094397;28;20448;-89
2023/09/15 08:53:41;;;;;;;5.93;3.47;;;19.60;99.90;;;;;;5089484;28;20423;-88
2023/09/15 08:56:08;;;;;;;10.40;3.97;;;19.60;99.90;;;;;;5073302;28;20419;-88
2023/09/15 08:58:35;;;;;;;5.20;4.03;;;19.90;99.90;;;;;;5072748;28;20853;-88
2023/09/15 09:01:01;;;;;;;7.27;4.63;;;20.60;99.90;;;;;;5071825;28;20397;-88
2023/09/15 09:03:27;;;;;;;6.00;3.80;;;20.90;99.90;;;;;;5072666;28;20420;-89
2023/09/15 09:05:55;;;;;;;8.57;4.13;;;21.40;99.90;;;;;;5081429;28;20454;-88
2023/09/15 09:08:24;;;;;;;8.30;3.80;;;21.00;99.90;;;;;;5092521;28;20412;-88
2023/09/15 09:10:49;;;;;;;7.07;3.70;;;21.10;99.90;;;;;;5093852;28;20770;-88
2023/09/15 09:13:15;;;;;;;9.80;4.20;;;21.40;99.90;;;;;;5092666;28;20425;-89
2023/09/15 09:15:42;;;;;;;7.53;3.17;;;21.60;99.90;;;;;;5092309;28;20697;-88
2023/09/15 09:18:16;;;;;;;8.33;3.33;;;21.70;99.90;;;;;;5092496;28;20862;-88
2023/09/15 09:20:42;;;;;;;5.53;3.70;;;22.00;99.90;;;;;;5092392;28;20414;-88
2023/09/15 09:23:09;;;;;;;7.20;3.70;;;22.20;99.90;;;;;;5092044;28;20460;-88
2023/09/15 09:25:39;;;;;;;7.17;4.57;;;22.50;99.90;;;;;;5091956;28;20937;-88
2023/09/15 09:28:06;;;;;;;5.27;3.40;;;22.70;99.90;;;;;;5092471;28;20885;-88
2023/09/15 09:30:32;;;;;;;9.60;3.50;;;22.60;99.90;;;;;;5092033;28;20501;-88
2023/09/15 09:32:58;;;;;;;4.53;3.20;;;22.60;99.90;;;;;;5092084;28;20559;-88
2023/09/15 09:35:25;;;;;;;6.90;4.20;;;22.90;99.90;;;;;;5092245;28;20418;-89
2023/09/15 09:37:53;;;;;;;6.50;3.50;;;23.20;99.90;;;;;;5092094;28;20473;-88
2023/09/15 09:40:20;;;;;;;4.17;3.07;;;23.50;99.90;;;;;;5093174;28;20525;-88
2023/09/15 09:42:47;;;;;;;4.73;2.80;;;24.00;99.90;;;;;;5082926;28;21011;-88
2023/09/15 09:45:14;;;;;;;7.40;3.30;;;24.30;99.90;;;;;;5071945;28;20963;-88
2023/09/15 09:47:40;;;;;;;4.93;3.23;;;24.60;99.90;;;;;;5072007;28;20887;-88
2023/09/15 09:50:10;;;;;;;6.83;3.83;;;24.50;99.90;;;;;;5072056;28;20419;-88
2023/09/15 09:52:37;;;;;;;7.47;3.97;;;24.50;99.90;;;;;;5071669;28;20426;-90
2023/09/15 09:55:08;;;;;;;6.90;4.00;;;24.20;99.90;;;;;;5071750;28;20770;-88
2023/09/15 09:57:36;;;;;;;7.13;3.90;;;24.80;99.90;;;;;;5071388;28;21019;-89
2023/09/15 10:00:03;;;;;;;5.87;3.70;;;25.10;99.90;;;;;;5071422;28;20847;-88
2023/09/15 10:02:29;;;;;;;4.47;3.10;;;25.50;99.90;;;;;;5071680;28;20411;-89
2023/09/15 10:04:55;;;;;;;4.20;3.77;;;25.90;99.90;;;;;;5071854;28;20461;-90
2023/09/15 10:07:20;;;;;;;4.80;3.90;;;25.90;99.90;;;;;;5071782;28;20183;-88
2023/09/15 10:09:47;;;;;;;5.90;3.20;;;25.80;99.90;;;;;;5071603;28;20187;-88
2023/09/15 10:12:14;;;;;;;8.30;4.00;;;26.00;99.90;;;;;;5074453;28;20184;-88
2023/09/15 10:14:40;;;;;;;7.13;3.37;;;26.30;99.90;;;;;;5090957;28;20477;-88
2023/09/15 10:17:06;;;;;;;5.33;3.77;;;26.70;99.90;;;;;;5091789;28;20462;-89
2023/09/15 10:19:35;;;;;;;7.63;4.10;;;26.90;99.90;;;;;;5092683;28;20445;-88
2023/09/15 10:22:01;;;;;;;5.60;3.70;;;26.90;99.90;;;;;;5091726;28;20433;-88
2023/09/15 10:24:27;;;;;;;10.43;4.33;;;26.70;99.90;;;;;;5091267;28;20450;-89
2023/09/15 10:26:53;;;;;;;9.60;3.57;;;26.60;99.90;;;;;;5091592;28;20421;-89
2023/09/15 10:29:18;;;;;;;5.67;3.03;;;26.80;99.90;;;;;;5091057;28;20180;-89
2023/09/15 10:31:45;;;;;;;6.80;3.93;;;26.90;99.90;;;;;;5092082;28;20659;-88
2023/09/15 10:34:11;;;;;;;6.43;3.57;;;27.40;99.90;;;;;;5093062;28;20690;-89
2023/09/15 10:36:39;;;;;;;5.97;3.40;;;27.10;99.90;;;;;;5093751;28;20469;-89
2023/09/15 10:39:17;;;;;;;7.47;3.03;;;27.20;99.90;;;;;;5095602;28;20418;-88
2023/09/15 10:41:43;;;;;;;4.20;2.70;;;27.20;99.90;;;;;;5086078;28;20510;-89
2023/09/15 10:44:12;;;;;;;5.67;3.20;;;27.30;99.90;;;;;;5071971;28;20428;-89
2023/09/15 10:46:42;;;;;;;3.50;2.40;;;26.70;99.90;;;;;;5057084;28;20439;-90
2023/09/15 10:49:19;;;;;;;5.90;3.67;;;26.50;99.90;;;;;;5056269;28;20428;-90
2023/09/15 10:52:00;;;;;;;10.53;3.30;;;26.20;99.90;;;;;;5054994;28;20420;-89
2023/09/15 10:54:34;;;;;;;4.03;3.27;;;26.60;99.90;;;;;;5056371;28;20568;-90
2023/09/15 10:57:01;;;;;;;4.40;2.47;;;26.90;99.90;;;;;;5055162;28;20467;-89
2023/09/15 10:59:27;;;;;;;3.50;2.30;;;26.70;99.90;;;;;;5054607;28;20801;-89
2023/09/15 11:01:53;;;;;;;2.50;2.20;;;27.00;99.90;;;;;;5054690;28;20482;-90
2023/09/15 11:04:21;;;;;;;3.73;2.33;;;26.90;99.90;;;;;;5054765;28;20428;-89
2023/09/15 11:06:53;;;;;;;4.60;2.50;;;26.40;99.90;;;;;;5054736;28;20809;-89
2023/09/15 11:09:21;;;;;;;3.03;2.20;;;26.50;99.90;;;;;;5054325;28;20506;-89
2023/09/15 11:11:49;;;;;;;2.93;1.87;;;26.50;99.90;;;;;;5055086;28;20756;-89
2023/09/15 11:14:19;;;;;;;5.40;2.20;;;27.10;99.90;;;;;;5055246;28;20485;-89
2023/09/15 11:16:54;;;;;;;3.50;1.73;;;27.20;99.90;;;;;;5058318;28;20460;-91
2023/09/15 11:19:26;;;;;;;2.77;1.77;;;27.60;99.90;;;;;;5053915;28;20435;-90
2023/09/15 11:21:52;;;;;;;2.67;2.07;;;27.90;99.90;;;;;;5054801;28;20490;-92
2023/09/15 11:24:18;;;;;;;3.27;2.20;;;28.10;99.90;;;;;;5070839;28;20428;-89
2023/09/15 11:26:52;;;;;;;2.20;2.00;;;28.20;99.90;;;;;;5055358;28;20444;-88
2023/09/15 11:29:23;;;;;;;5.63;1.87;;;28.20;99.90;;;;;;5070778;28;20554;-89
2023/09/15 11:31:50;;;;;;;6.17;2.07;;;28.80;99.90;;;;;;5070951;28;20550;-89
2023/09/15 11:34:17;;;;;;;3.23;2.03;;;28.70;99.90;;;;;;5070997;28;20408;-89
2023/09/15 11:36:42;;;;;;;3.63;1.73;;;29.20;99.90;;;;;;5053762;28;20439;-89
2023/09/15 11:39:13;;;;;;;2.60;2.10;;;29.40;99.90;;;;;;5070513;28;20420;-89
2023/09/15 11:41:40;;;;;;;2.90;1.70;;;29.20;99.90;;;;;;5069982;28;20189;-89
2023/09/15 11:44:08;;;;;;;3.13;1.97;;;29.40;99.90;;;;;;5053835;28;20459;-89
2023/09/15 11:46:39;;;;;;;2.60;1.83;;;29.30;99.90;;;;;;5053487;28;20467;-89
2023/09/15 11:49:06;;;;;;;1.50;1.40;;;29.50;99.90;;;;;;5054291;28;20427;-91
2023/09/15 11:51:32;;;;;;;2.27;2.07;;;29.50;99.90;;;;;;5053895;28;20428;-90
2023/09/15 11:53:59;;;;;;;3.13;1.40;;;29.40;99.90;;;;;;5054323;28;20496;-90
2023/09/15 11:56:26;;;;;;;3.90;1.40;;;29.80;99.90;;;;;;5053952;28;20506;-91
2023/09/15 11:58:52;;;;;;;3.00;1.30;;;30.50;99.80;;;;;;5038077;28;20823;-90
2023/09/15 12:01:19;;;;;;;3.57;1.50;;;30.40;97.80;;;;;;5061793;28;20433;-90
2023/09/15 12:03:54;;;;;;;2.30;1.50;;;30.50;99.00;;;;;;5074202;28;20415;-91
2023/09/15 12:06:20;;;;;;;3.30;2.00;;;30.50;96.60;;;;;;5074170;28;20422;-91
2023/09/15 12:08:50;;;;;;;2.90;2.00;;;30.70;95.60;;;;;;5074126;28;20445;-92
2023/09/15 12:11:17;;;;;;;2.23;1.43;;;30.20;97.70;;;;;;5073427;28;20822;-90
2023/09/15 12:13:43;;;;;;;3.83;1.90;;;30.40;97.90;;;;;;5073520;28;20423;-89
2023/09/15 12:16:17;;;;;;;1.90;1.70;;;30.00;93.10;;;;;;5073113;28;21002;-89
2023/09/15 12:18:48;;;;;;;2.17;1.70;;;29.50;95.70;;;;;;5073011;28;20852;-91
2023/09/15 12:21:24;;;;;;;3.47;1.50;;;30.00;97.70;;;;;;5080663;28;20836;-92
2023/09/15 12:23:51;;;;;;;3.23;1.97;;;30.10;96.50;;;;;;5073323;28;20418;-91
2023/09/15 12:26:17;;;;;;;2.10;1.67;;;30.60;95.30;;;;;;5073921;28;20411;-91
2023/09/15 12:28:46;;;;;;;2.43;1.77;;;31.30;94.10;;;;;;5073389;28;20933;-91
2023/09/15 12:31:17;;;;;;;5.47;1.70;;;31.20;94.10;;;;;;5073732;28;20415;-91
2023/09/15 12:33:46;;;;;;;1.70;1.30;;;31.10;93.80;;;;;;5073463;28;20426;-92
2023/09/15 12:36:18;;;;;;;1.60;1.50;;;31.60;93.00;;;;;;5073257;28;20419;-91
2023/09/15 12:38:44;;;;;;;1.90;1.50;;;29.90;86.70;;;;;;5073507;28;20422;-94
2023/09/15 12:41:14;;;;;;;2.80;1.50;;;30.50;92.30;;;;;;5068770;28;20472;-92
2023/09/15 12:43:40;;;;;;;2.13;1.60;;;30.80;92.20;;;;;;5073699;28;20177;-92